Time;durP1;ratioP1;P1;durP2;ratioP2;P2;SDS_P1;SDS_P2;PMS_P1;PMS_P2;Temp;Humidity;BMP_temperature;BMP_pressure;BME280_temperature;BME280_humidity;BME280_pressure;Samples;Min_cycle;Max_cycle;Signal;HPM_P1;HPM_P2
2022/03/25 00:01:01;;;;;;;59.60;25.65;;;;;;;2.75;55.91;101286.44;1808637;79;25440;-69
2022/03/25 00:03:27;;;;;;;54.38;26.02;;;;;;;2.70;56.07;101289.00;1805502;79;25376;-68
2022/03/25 00:05:53;;;;;;;56.35;28.87;;;;;;;2.66;56.13;101292.38;1805463;79;25520;-69
2022/03/25 00:08:19;;;;;;;51.50;25.55;;;;;;;2.63;56.23;101292.31;1805414;79;28017;-68
2022/03/25 00:10:46;;;;;;;55.58;26.75;;;;;;;2.59;56.36;101287.95;1805330;79;25792;-69
2022/03/25 00:13:12;;;;;;;52.13;27.67;;;;;;;2.58;56.35;101285.51;1805435;79;25377;-69
2022/03/25 00:15:38;;;;;;;67.05;30.05;;;;;;;2.53;56.53;101280.05;1805377;79;27467;-69
2022/03/25 00:18:05;;;;;;;69.60;30.52;;;;;;;2.50;56.46;101286.65;1805455;79;25559;-69
2022/03/25 00:20:31;;;;;;;71.05;32.35;;;;;;;2.47;56.70;101286.30;1805466;79;27400;-69
2022/03/25 00:22:57;;;;;;;61.35;28.42;;;;;;;2.42;56.80;101280.34;1805358;79;25694;-69
2022/03/25 00:25:23;;;;;;;61.23;28.05;;;;;;;2.38;56.81;101276.48;1805426;79;25621;-69
2022/03/25 00:27:50;;;;;;;67.00;28.38;;;;;;;2.36;56.89;101275.91;1805432;79;25385;-69
2022/03/25 00:30:16;;;;;;;61.68;30.10;;;;;;;2.34;56.89;101280.66;1805456;79;25542;-69
2022/03/25 00:32:43;;;;;;;60.00;30.55;;;;;;;2.34;57.11;101281.47;1805417;79;27318;-69
2022/03/25 00:35:10;;;;;;;62.20;31.85;;;;;;;2.30;57.27;101277.64;1805346;79;25547;-69
2022/03/25 00:37:37;;;;;;;67.60;28.07;;;;;;;2.28;57.39;101279.70;1805426;79;25374;-68
2022/03/25 00:40:05;;;;;;;64.10;28.92;;;;;;;2.24;57.23;101282.02;1805382;79;25607;-67
2022/03/25 00:42:32;;;;;;;63.50;30.27;;;;;;;2.23;57.45;101279.58;1805727;79;25459;-68
2022/03/25 00:45:01;;;;;;;64.37;26.55;;;;;;;2.23;57.45;101272.41;1805390;79;27357;-68
2022/03/25 00:47:26;;;;;;;69.87;29.25;;;;;;;2.20;57.69;101272.86;1805046;79;27159;-68
2022/03/25 00:49:52;;;;;;;60.15;28.42;;;;;;;2.19;57.76;101267.74;1805369;79;25543;-69
2022/03/25 00:52:20;;;;;;;67.53;29.52;;;;;;;2.17;57.63;101265.30;1805411;79;25554;-69
2022/03/25 00:54:47;;;;;;;58.65;30.17;;;;;;;2.17;57.79;101269.30;1805394;79;25580;-68
2022/03/25 00:57:13;;;;;;;58.83;26.25;;;;;;;2.16;57.97;101268.20;1805460;79;27308;-69
2022/03/25 00:59:39;;;;;;;83.12;69.53;;;;;;;2.13;58.12;101265.98;1805376;79;25524;-68
2022/03/25 01:02:05;;;;;;;107.00;96.55;;;;;;;2.11;58.14;101263.56;1805313;79;25803;-68
2022/03/25 01:04:32;;;;;;;72.58;56.63;;;;;;;2.10;58.12;101262.45;1805386;79;25506;-70
2022/03/25 01:06:59;;;;;;;57.33;25.88;;;;;;;2.12;57.88;101261.70;1805444;79;25412;-69
2022/03/25 01:09:25;;;;;;;57.43;26.02;;;;;;;2.12;57.89;101261.70;1805380;79;27310;-69
2022/03/25 01:11:52;;;;;;;53.33;26.55;;;;;;;2.12;57.96;101264.37;1805355;79;25598;-69
2022/03/25 01:14:19;;;;;;;55.40;25.12;;;;;;;2.11;58.06;101267.56;1805384;79;25599;-69
2022/03/25 01:16:45;;;;;;;59.45;29.15;;;;;;;2.10;57.95;101262.45;1805336;79;25429;-69
2022/03/25 01:19:12;;;;;;;56.75;27.98;;;;;;;2.08;58.13;101259.17;1805442;79;25582;-69
2022/03/25 01:21:39;;;;;;;54.33;26.57;;;;;;;2.05;58.12;101268.47;1805454;79;28339;-69
2022/03/25 01:24:06;;;;;;;57.73;28.70;;;;;;;2.03;57.83;101262.02;1805334;79;25368;-69
2022/03/25 01:26:32;;;;;;;61.48;29.12;;;;;;;2.01;58.27;101265.45;1805421;79;25664;-69
2022/03/25 01:28:59;;;;;;;59.93;29.80;;;;;;;1.99;58.26;101267.53;1805385;79;26167;-69
2022/03/25 01:31:26;;;;;;;60.05;30.50;;;;;;;1.98;58.44;101266.42;1805400;79;25369;-69
2022/03/25 01:33:52;;;;;;;57.13;30.00;;;;;;;1.96;58.52;101259.98;1805432;79;27320;-69
2022/03/25 01:36:19;;;;;;;54.45;27.98;;;;;;;1.95;58.68;101261.53;1805321;79;25595;-69
2022/03/25 01:38:45;;;;;;;62.90;29.23;;;;;;;1.92;58.65;101269.98;1805383;79;25522;-69
2022/03/25 01:41:17;;;;;;;52.25;27.32;;;;;;;1.91;58.30;101273.19;1805305;79;25376;-69
2022/03/25 01:43:55;;;;;;;60.35;29.65;;;;;;;1.85;58.46;101262.88;1805399;79;25374;-69
2022/03/25 01:46:22;;;;;;;49.75;27.93;;;;;;;1.83;58.76;101268.97;1805376;79;27448;-69
2022/03/25 01:48:52;;;;;;;49.83;27.85;;;;;;;1.81;58.84;101260.91;1805242;79;25531;-69
2022/03/25 01:51:23;;;;;;;55.58;26.97;;;;;;;1.81;58.87;101269.72;1805390;79;25462;-68
2022/03/25 01:53:50;;;;;;;50.98;25.82;;;;;;;1.78;58.78;101268.84;1800648;79;25473;-69
2022/03/25 01:56:23;;;;;;;60.08;26.90;;;;;;;1.76;58.71;101267.45;1776233;79;25614;-69
2022/03/25 01:58:50;;;;;;;66.15;28.47;;;;;;;1.71;58.72;101272.64;1805397;79;28069;-69
2022/03/25 02:01:16;;;;;;;53.40;25.08;;;;;;;1.66;58.66;101267.45;1805269;79;25396;-69
2022/03/25 02:03:44;;;;;;;55.50;26.57;;;;;;;1.61;58.75;101267.84;1807883;79;25416;-69
2022/03/25 02:06:11;;;;;;;59.65;26.37;;;;;;;1.53;59.00;101270.28;1808443;79;25594;-69
2022/03/25 02:08:37;;;;;;;61.33;26.85;;;;;;;1.50;59.06;101272.09;1808471;79;25675;-69
2022/03/25 02:11:04;;;;;;;61.83;28.05;;;;;;;1.44;59.25;101266.31;1808576;79;27324;-69
2022/03/25 02:13:31;;;;;;;61.45;29.92;;;;;;;1.39;59.25;101266.17;1808440;79;25516;-69
2022/03/25 02:15:57;;;;;;;66.60;30.08;;;;;;;1.36;59.13;101266.08;1808454;79;25371;-69
2022/03/25 02:18:25;;;;;;;59.80;27.60;;;;;;;1.33;59.18;101266.55;1808425;79;26126;-69
2022/03/25 02:20:51;;;;;;;55.85;26.07;;;;;;;1.26;59.30;101267.13;1808498;79;25374;-69
2022/03/25 02:23:18;;;;;;;52.67;26.00;;;;;;;1.21;59.49;101269.64;1808486;79;27325;-69
2022/03/25 02:25:49;;;;;;;60.73;28.27;;;;;;;1.15;59.72;101272.69;1808477;79;25985;-69
2022/03/25 02:28:15;;;;;;;59.08;28.75;;;;;;;1.12;59.84;101283.78;1808504;79;25150;-69
2022/03/25 02:30:43;;;;;;;59.40;28.42;;;;;;;1.05;59.84;101282.52;1808969;79;25589;-69
2022/03/25 02:33:10;;;;;;;57.85;27.93;;;;;;;0.99;60.12;101279.42;1808471;79;25370;-69
2022/03/25 02:35:47;;;;;;;59.35;28.15;;;;;;;0.96;60.09;101281.19;1808479;79;27370;-69
2022/03/25 02:38:18;;;;;;;53.45;27.05;;;;;;;0.93;60.02;101274.97;1807423;79;25619;-69
2022/03/25 02:40:45;;;;;;;65.50;26.80;;;;;;;0.90;60.24;101278.06;1808471;79;25429;-69
2022/03/25 02:43:13;;;;;;;56.73;28.67;;;;;;;0.86;60.32;101277.69;1808423;79;25604;-69
2022/03/25 02:45:41;;;;;;;64.97;31.05;;;;;;;0.86;60.21;101277.69;1781509;79;25480;-69
2022/03/25 02:48:09;;;;;;;59.70;29.70;;;;;;;0.85;60.52;101280.58;1808465;79;27377;-69
2022/03/25 02:50:35;;;;;;;55.48;28.27;;;;;;;0.82;60.66;101273.85;1808276;79;25478;-68
2022/03/25 02:53:02;;;;;;;59.40;29.15;;;;;;;0.81;60.63;101284.72;1808445;79;25611;-69
2022/03/25 02:55:29;;;;;;;65.42;30.35;;;;;;;0.78;60.71;101277.97;1808392;79;25890;-69
2022/03/25 02:57:56;;;;;;;57.65;28.23;;;;;;;0.74;60.83;101277.59;1808463;79;25362;-69
2022/03/25 03:00:25;;;;;;;60.12;29.57;;;;;;;0.71;60.85;101279.36;1808438;79;27461;-69
2022/03/25 03:02:52;;;;;;;64.87;30.32;;;;;;;0.69;61.04;101280.63;1808667;79;25381;-68
2022/03/25 03:05:18;;;;;;;56.33;28.45;;;;;;;0.65;61.16;101278.92;1808456;79;25464;-68
2022/03/25 03:07:46;;;;;;;57.38;28.95;;;;;;;0.63;61.11;101281.00;1808357;79;25557;-68
2022/03/25 03:10:13;;;;;;;58.73;28.83;;;;;;;0.61;61.30;101273.72;1808494;79;25635;-68
2022/03/25 03:12:41;;;;;;;60.35;28.07;;;;;;;0.57;61.29;101287.19;1808438;79;27421;-68
2022/03/25 03:15:12;;;;;;;61.48;28.95;;;;;;;0.54;61.39;101282.28;1808327;79;25562;-68
2022/03/25 03:17:39;;;;;;;51.00;25.05;;;;;;;0.50;61.61;101283.23;1808469;79;25626;-68
2022/03/25 03:20:08;;;;;;;65.72;28.25;;;;;;;0.47;61.60;101277.54;1808499;79;25591;-68
2022/03/25 03:22:35;;;;;;;51.70;26.30;;;;;;;0.46;61.59;101283.88;1808798;79;25558;-68
2022/03/25 03:25:01;;;;;;;54.58;25.30;;;;;;;0.42;61.71;101285.36;1808589;79;27296;-69
2022/03/25 03:27:30;;;;;;;54.27;25.08;;;;;;;0.38;61.74;101293.49;1808496;79;25699;-68
2022/03/25 03:29:58;;;;;;;55.90;24.82;;;;;;;0.33;61.84;101286.15;1808715;79;25436;-68
2022/03/25 03:32:26;;;;;;;57.10;26.55;;;;;;;0.31;61.99;101295.67;1808646;79;25467;-68
2022/03/25 03:34:56;;;;;;;62.88;26.20;;;;;;;0.31;61.94;101296.20;1808611;79;25615;-68
2022/03/25 03:37:24;;;;;;;61.83;25.72;;;;;;;0.29;62.23;101290.25;1808643;79;28455;-68
2022/03/25 03:39:51;;;;;;;54.05;23.87;;;;;;;0.30;62.35;101303.34;1808580;79;25601;-68
2022/03/25 03:42:18;;;;;;;61.77;29.80;;;;;;;0.27;62.23;101301.64;1808629;79;25593;-68
2022/03/25 03:44:44;;;;;;;58.15;30.00;;;;;;;0.29;62.21;101308.39;1808635;79;25591;-68
2022/03/25 03:47:12;;;;;;;60.33;28.75;;;;;;;0.28;62.46;101308.08;1808655;79;25419;-68
2022/03/25 03:49:39;;;;;;;63.87;28.75;;;;;;;0.29;62.52;101307.06;1808571;79;27019;-68
2022/03/25 03:52:08;;;;;;;56.45;28.45;;;;;;;0.28;62.54;101313.40;1808447;79;25597;-68
2022/03/25 03:54:37;;;;;;;56.42;27.02;;;;;;;0.29;62.70;101314.20;1808671;79;25516;-68
2022/03/25 03:57:07;;;;;;;59.05;27.87;;;;;;;0.27;62.74;101313.09;1808655;79;25560;-68
2022/03/25 03:59:33;;;;;;;57.38;27.27;;;;;;;0.30;62.79;101315.85;1808716;79;25384;-68
2022/03/25 04:01:59;;;;;;;55.78;27.22;;;;;;;0.30;62.68;101319.84;1808591;79;27560;-68
2022/03/25 04:04:25;;;;;;;57.13;24.77;;;;;;;0.30;62.85;101316.66;1808464;79;25404;-68
2022/03/25 04:06:52;;;;;;;54.50;24.95;;;;;;;0.29;62.82;101313.72;1808577;79;25516;-68
2022/03/25 04:09:18;;;;;;;50.25;24.82;;;;;;;0.32;63.00;101313.78;1808607;79;26180;-68
2022/03/25 04:11:44;;;;;;;48.10;24.43;;;;;;;0.33;62.95;101310.91;1808616;79;25547;-68
2022/03/25 04:14:10;;;;;;;54.20;24.63;;;;;;;0.35;62.96;101314.16;1808532;79;27361;-68
2022/03/25 04:16:38;;;;;;;45.33;23.38;;;;;;;0.34;62.83;101312.55;1808467;79;25612;-68
2022/03/25 04:19:04;;;;;;;52.62;24.35;;;;;;;0.35;62.97;101310.70;1808530;79;25611;-68
2022/03/25 04:21:31;;;;;;;46.98;22.98;;;;;;;0.39;63.08;101311.08;1808489;79;25620;-68
2022/03/25 04:23:57;;;;;;;48.02;23.18;;;;;;;0.39;62.93;101313.21;1808548;79;25385;-68
2022/03/25 04:26:24;;;;;;;49.20;23.62;;;;;;;0.40;62.93;101311.39;1808568;79;27288;-68
2022/03/25 04:28:51;;;;;;;53.45;23.90;;;;;;;0.40;62.89;101316.19;1808446;79;25752;-68
2022/03/25 04:31:17;;;;;;;45.10;23.12;;;;;;;0.41;62.86;101316.99;1808491;79;25382;-68
2022/03/25 04:33:43;;;;;;;46.73;22.52;;;;;;;0.39;62.91;101313.21;1808594;79;25621;-68
2022/03/25 04:36:10;;;;;;;98.00;87.80;;;;;;;0.40;62.97;101316.19;1808613;79;25879;-69
2022/03/25 04:38:36;;;;;;;101.12;91.20;;;;;;;0.35;62.76;101310.70;1808517;79;27312;-69
2022/03/25 04:41:03;;;;;;;69.22;42.78;;;;;;;0.33;62.81;101312.23;1808449;79;25698;-69
2022/03/25 04:43:29;;;;;;;70.47;30.45;;;;;;;0.38;62.78;101322.77;1808545;79;25617;-69
2022/03/25 04:45:56;;;;;;;74.67;31.93;;;;;;;0.37;62.75;101320.61;1808442;79;25616;-69
2022/03/25 04:48:25;;;;;;;57.93;29.40;;;;;;;0.35;62.84;101323.48;1808501;79;25515;-69
2022/03/25 04:50:51;;;;;;;64.97;31.80;;;;;;;0.35;62.80;101322.15;1808667;79;27935;-69
2022/03/25 04:53:17;;;;;;;60.52;31.15;;;;;;;0.34;63.07;101323.69;1808401;79;25574;-69
2022/03/25 04:55:44;;;;;;;60.90;31.73;;;;;;;0.32;63.48;101323.94;1808526;79;25524;-69
2022/03/25 04:58:11;;;;;;;59.65;31.75;;;;;;;0.33;63.49;101332.20;1808431;79;25655;-69
2022/03/25 05:00:38;;;;;;;61.05;30.48;;;;;;;0.33;63.59;101326.07;1808588;79;25384;-69
2022/03/25 05:03:05;;;;;;;61.75;29.60;;;;;;;0.34;63.62;101327.69;1807884;79;27321;-69
2022/03/25 05:05:34;;;;;;;58.28;28.42;;;;;;;0.35;63.74;101330.66;1805336;79;25392;-69
2022/03/25 05:08:00;;;;;;;74.05;66.47;;;;;;;0.38;63.48;101330.23;1805529;79;25434;-69
2022/03/25 05:10:28;;;;;;;75.17;51.08;;;;;;;0.39;63.86;101326.52;1805300;79;25664;-69
2022/03/25 05:12:55;;;;;;;68.87;33.38;;;;;;;0.47;63.95;101335.58;1805370;79;25431;-69
2022/03/25 05:15:25;;;;;;;122.28;56.83;;;;;;;0.51;63.95;101338.13;1805428;79;27358;-69
2022/03/25 05:17:51;;;;;;;;;;;;;;;0.58;64.02;101340.75;1807947;79;25382;-69
2022/03/25 05:20:20;;;;;;;63.23;31.65;;;;;;;0.67;64.20;101349.28;1805377;79;25589;-69
2022/03/25 05:22:48;;;;;;;58.30;31.10;;;;;;;0.69;64.15;101340.02;1805576;79;25635;-69
2022/03/25 05:25:15;;;;;;;59.70;28.30;;;;;;;0.80;64.27;101345.18;1805386;79;25550;-69
2022/03/25 05:27:52;;;;;;;60.73;29.72;;;;;;;0.89;64.45;101341.72;1805438;79;28202;-69
2022/03/25 05:30:26;;;;;;;63.23;29.67;;;;;;;1.01;64.52;101337.83;1805297;79;25618;-69
2022/03/25 05:32:58;;;;;;;64.10;31.85;;;;;;;1.11;64.66;101326.95;1804274;79;25397;-68
2022/03/25 05:35:25;;;;;;;57.55;30.48;;;;;;;1.27;64.61;101330.88;1803936;79;25678;-68
2022/03/25 05:37:53;;;;;;;61.40;30.55;;;;;;;1.41;64.57;101333.41;1805496;79;25537;-68
2022/03/25 05:40:23;;;;;;;64.70;30.48;;;;;;;1.56;64.76;101335.70;1805362;79;27332;-68
2022/03/25 05:42:50;;;;;;;57.30;30.12;;;;;;;1.73;64.88;101340.72;1805505;79;25448;-69
2022/03/25 05:45:20;;;;;;;57.50;27.95;;;;;;;1.91;64.52;101339.89;1805437;79;25186;-69
2022/03/25 05:47:46;;;;;;;56.18;29.98;;;;;;;2.10;64.53;101346.53;1805495;79;25672;-69
2022/03/25 05:50:14;;;;;;;58.45;28.70;;;;;;;2.30;64.57;101339.55;1805524;79;25393;-70
2022/03/25 05:52:41;;;;;;;61.28;30.02;;;;;;;2.50;64.48;101345.41;1805577;79;27328;-69
2022/03/25 05:55:10;;;;;;;52.17;28.60;;;;;;;2.74;64.10;101345.45;1805328;79;25673;-70
2022/03/25 05:57:36;;;;;;;51.23;27.17;;;;;;;3.00;64.45;101350.89;1805395;79;25535;-70
2022/03/25 06:00:08;;;;;;;55.03;26.95;;;;;;;3.25;63.90;101346.65;1805448;79;25620;-69
2022/03/25 06:02:35;;;;;;;54.05;26.85;;;;;;;3.51;63.68;101345.85;1805765;79;25389;-70
2022/03/25 06:05:01;;;;;;;50.03;24.43;;;;;;;3.79;63.47;101347.73;1805421;79;27325;-69
2022/03/25 06:07:39;;;;;;;135.32;61.48;;;;;;;4.05;62.78;101349.06;1776159;79;25596;-70
2022/03/25 06:10:08;;;;;;;73.15;36.75;;;;;;;4.38;62.95;101358.75;1805331;79;25566;-70
2022/03/25 06:12:36;;;;;;;66.62;30.72;;;;;;;4.71;62.54;101352.59;1805501;79;25662;-71
2022/03/25 06:15:04;;;;;;;53.75;28.50;;;;;;;5.07;61.96;101355.82;1805453;79;25369;-71
2022/03/25 06:17:31;;;;;;;53.52;27.35;;;;;;;5.43;61.71;101352.29;1805372;79;28020;-70
2022/03/25 06:19:58;;;;;;;56.60;27.48;;;;;;;5.75;61.01;101349.73;1805323;79;25381;-70
2022/03/25 06:22:24;;;;;;;60.60;27.25;;;;;;;6.09;60.42;101347.46;1805406;79;25597;-70
2022/03/25 06:24:53;;;;;;;55.48;26.80;;;;;;;6.44;59.96;101353.72;1805425;79;26217;-70
2022/03/25 06:27:21;;;;;;;102.20;92.55;;;;;;;6.81;59.42;101350.78;1805441;79;25578;-71
2022/03/25 06:29:47;;;;;;;47.30;26.90;;;;;;;7.18;58.64;101348.62;1805448;79;27384;-68
2022/03/25 06:32:15;;;;;;;49.00;25.52;;;;;;;7.57;57.77;101348.28;1797849;78;25848;-70
2022/03/25 06:34:41;;;;;;;55.55;28.85;;;;;;;7.94;56.94;101344.11;1787725;79;25622;-70
2022/03/25 06:37:08;;;;;;;52.85;27.65;;;;;;;8.33;56.36;101346.34;1808387;79;25628;-69
2022/03/25 06:39:34;;;;;;;51.15;25.62;;;;;;;8.70;55.65;101346.67;1805297;78;25766;-69
2022/03/25 06:42:01;;;;;;;44.30;21.90;;;;;;;9.12;55.01;101351.46;1805038;79;27409;-69
2022/03/25 06:44:28;;;;;;;38.55;22.02;;;;;;;9.53;53.76;101346.77;1777486;79;25638;-69
2022/03/25 06:46:54;;;;;;;42.00;22.67;;;;;;;9.88;52.21;101347.69;1816269;79;25576;-70
2022/03/25 06:49:21;;;;;;;41.33;22.48;;;;;;;10.29;52.13;101347.98;1816041;79;25743;-69
2022/03/25 06:51:52;;;;;;;41.80;21.50;;;;;;;10.67;50.56;101346.11;1816217;79;25406;-69
2022/03/25 06:54:19;;;;;;;40.70;20.70;;;;;;;10.99;49.51;101347.70;1789945;80;28354;-71
2022/03/25 06:56:46;;;;;;;39.90;21.20;;;;;;;11.36;49.01;101347.59;1788268;80;27171;-69
2022/03/25 06:59:14;;;;;;;33.05;17.80;;;;;;;11.79;48.34;101352.22;1809973;79;25377;-74
2022/03/25 07:01:41;;;;;;;44.27;18.85;;;;;;;12.23;47.36;101350.30;1810383;79;25704;-74
2022/03/25 07:04:09;;;;;;;37.80;18.82;;;;;;;12.65;46.25;101346.65;1797003;77;25938;-75
2022/03/25 07:06:38;;;;;;;32.63;18.10;;;;;;;13.04;45.36;101348.14;1820619;78;27383;-76
2022/03/25 07:09:06;;;;;;;;;;;;;;;13.50;44.33;101349.20;1804931;79;25631;-72
2022/03/25 07:11:33;;;;;;;38.75;31.87;;;;;;;13.88;43.13;101364.47;1783403;80;25362;-79
2022/03/25 07:13:59;;;;;;;30.45;17.30;;;;;;;14.13;41.95;101358.47;1798394;79;25732;-78
2022/03/25 07:16:25;;;;;;;29.32;18.25;;;;;;;14.39;41.43;101351.06;1802194;79;25602;-77
2022/03/25 07:18:52;;;;;;;33.85;18.00;;;;;;;14.80;40.97;101357.45;1792734;79;27370;-78
2022/03/25 07:21:18;;;;;;;35.43;22.93;;;;;;;15.23;40.18;101361.74;1791502;79;25776;-79
2022/03/25 07:23:44;;;;;;;94.25;86.17;;;;;;;15.59;39.39;101369.48;1796418;79;25551;-78
2022/03/25 07:26:11;;;;;;;33.20;18.98;;;;;;;15.95;38.77;101365.73;1808274;78;26132;-79
2022/03/25 07:28:37;;;;;;;35.50;20.08;;;;;;;16.32;38.15;101369.77;1776420;80;25719;-80
2022/03/25 07:31:05;;;;;;;39.73;20.40;;;;;;;16.69;37.64;101367.50;1785418;78;27325;-78
2022/03/25 07:33:31;;;;;;;39.45;20.17;;;;;;;17.04;36.99;101363.89;1791579;80;25354;-81
2022/03/25 07:35:57;;;;;;;36.05;19.32;;;;;;;17.43;36.48;101374.28;1790452;80;25610;-78
2022/03/25 07:38:23;;;;;;;34.53;18.80;;;;;;;17.83;35.81;101372.54;1790223;80;25724;-79
2022/03/25 07:40:50;;;;;;;41.05;30.90;;;;;;;18.15;35.11;101372.42;1790678;80;25797;-79
2022/03/25 07:43:17;;;;;;;32.28;19.20;;;;;;;18.48;34.23;101376.55;1790167;80;27314;-78
2022/03/25 07:45:44;;;;;;;91.45;83.75;;;;;;;18.65;33.27;101377.53;1790182;80;25718;-80
2022/03/25 07:48:10;;;;;;;89.95;82.00;;;;;;;18.77;32.38;101374.82;1790186;80;26458;-79
2022/03/25 07:50:37;;;;;;;89.28;82.05;;;;;;;18.71;31.48;101370.71;1790261;80;25801;-80
2022/03/25 07:53:04;;;;;;;32.55;20.57;;;;;;;19.04;31.89;101363.04;1790798;80;25733;-80
2022/03/25 07:55:30;;;;;;;33.15;18.35;;;;;;;19.39;31.09;101373.02;1790100;80;27360;-77
2022/03/25 07:57:57;;;;;;;32.93;18.02;;;;;;;19.86;30.89;101370.36;1789287;80;25781;-78
2022/03/25 08:00:24;;;;;;;29.00;15.10;;;;;;;20.67;30.03;101366.22;1790608;80;25392;-80
2022/03/25 08:02:52;;;;;;;27.62;16.02;;;;;;;;;;1792154;80;25619;-79
2022/03/25 08:05:19;;;;;;;30.92;16.55;;;;;;;21.90;28.49;101368.61;1809310;78;25692;-79
2022/03/25 08:07:55;;;;;;;29.07;16.67;;;;;;;22.50;27.78;101366.90;1789630;80;27757;-79
2022/03/25 08:10:28;;;;;;;30.43;16.57;;;;;;;23.02;26.89;101369.39;1789534;80;25345;-77
2022/03/25 08:12:56;;;;;;;28.83;15.72;;;;;;;23.35;26.24;101363.86;1788236;80;25357;-78
2022/03/25 08:15:25;;;;;;;36.30;22.55;;;;;;;23.58;25.93;101359.66;1789964;80;25623;-79
2022/03/25 08:18:00;;;;;;;37.30;16.52;;;;;;;24.04;25.16;101365.86;1761518;80;25821;-81
2022/03/25 08:20:37;;;;;;;28.83;18.75;;;;;;;24.49;24.55;101369.34;1789898;80;27322;-79
2022/03/25 08:23:07;;;;;;;24.75;16.67;;;;;;;24.67;23.83;101369.54;1779286;80;25732;-78
2022/03/25 08:28:07;;;;;;;26.25;16.17;;;;;;;24.81;23.39;101371.08;1701327;84;26533;-76
2022/03/25 08:30:43;;;;;;;25.37;16.37;;;;;;;24.78;23.38;101369.85;1701170;83;26028;-77
2022/03/25 08:33:16;;;;;;;32.73;20.80;;;;;;;24.78;23.11;101369.85;1620971;88;26088;-77
2022/03/25 08:35:45;;;;;;;39.55;23.90;;;;;;;24.66;22.82;101371.52;1620427;88;25941;-77
2022/03/25 08:38:12;;;;;;;31.02;17.92;;;;;;;24.63;23.03;101372.27;1620709;87;25782;-77
2022/03/25 08:40:41;;;;;;;27.60;16.73;;;;;;;24.88;23.15;101365.61;1620556;88;25780;-76
2022/03/25 08:43:08;;;;;;;30.25;17.82;;;;;;;24.92;22.52;101369.78;1620590;88;25808;-74
2022/03/25 08:45:35;;;;;;;28.30;17.42;;;;;;;24.82;22.54;101371.27;1599016;88;27361;-76
2022/03/25 08:48:01;;;;;;;31.02;16.35;;;;;;;24.93;22.71;101360.32;1620461;88;26019;-76
2022/03/25 08:50:28;;;;;;;28.45;17.50;;;;;;;25.13;22.77;101363.63;1620464;87;25792;-76
2022/03/25 08:52:54;;;;;;;28.87;17.27;;;;;;;25.34;22.70;101363.83;1620540;88;25679;-77
2022/03/25 08:55:21;;;;;;;33.05;17.07;;;;;;;25.55;22.27;101356.84;1620626;86;25795;-77
2022/03/25 08:57:48;;;;;;;39.13;19.50;;;;;;;25.63;22.12;101358.48;1620771;88;27347;-76
2022/03/25 09:00:18;;;;;;;30.95;17.20;;;;;;;25.63;21.79;101363.23;1620582;87;25793;-76
2022/03/25 09:02:47;;;;;;;31.02;17.77;;;;;;;25.38;21.53;101361.08;1621918;87;25437;-78
2022/03/25 09:05:13;;;;;;;30.68;18.50;;;;;;;25.24;21.81;101360.36;1628641;87;25788;-78
2022/03/25 09:07:40;;;;;;;34.30;17.73;;;;;;;25.08;21.92;101360.64;1640673;87;25366;-78
2022/03/25 09:10:10;;;;;;;32.78;17.32;;;;;;;25.16;21.79;101355.95;1666601;83;27387;-77
2022/03/25 09:12:37;;;;;;;25.05;15.50;;;;;;;25.07;21.80;101352.13;1723558;83;25395;-78
2022/03/25 09:15:07;;;;;;;28.12;16.90;;;;;;;25.05;21.72;101343.41;1723331;83;25826;-77
2022/03/25 09:17:34;;;;;;;29.12;16.42;;;;;;;25.05;21.54;101347.56;1723342;83;26401;-77
2022/03/25 09:20:03;;;;;;;26.77;17.10;;;;;;;25.06;21.79;101348.35;1723567;83;25782;-78
2022/03/25 09:22:34;;;;;;;29.55;18.17;;;;;;;25.03;21.59;101333.89;1723361;83;27383;-78
2022/03/25 09:25:04;;;;;;;31.12;19.07;;;;;;;25.16;21.74;101340.72;1723560;83;25791;-80
2022/03/25 09:27:30;;;;;;;;;;;;;;;25.22;21.16;101341.97;1725752;83;25745;-74
2022/03/25 09:29:56;;;;;;;27.55;17.25;;;;;;;25.05;21.17;101343.41;1747859;80;26344;-71
2022/03/25 09:32:23;;;;;;;26.90;16.97;;;;;;;24.82;21.43;101345.58;1787768;80;25777;-73
2022/03/25 09:37:40;;;;;;;25.62;16.87;;;;;;;24.82;21.53;101325.63;1708355;84;25720;-73
2022/03/25 09:40:15;;;;;;;24.50;16.00;;;;;;;24.96;21.51;101329.91;1738070;82;25717;-72
2022/03/25 09:42:42;;;;;;;25.85;17.12;;;;;;;25.24;21.38;101326.36;1708416;84;26208;-72
2022/03/25 09:45:12;;;;;;;26.90;17.12;;;;;;;25.48;21.07;101322.19;1737884;82;25665;-72
2022/03/25 09:47:39;;;;;;;28.45;16.52;;;;;;;25.64;20.80;101324.06;1708459;84;27333;-72
2022/03/25 09:50:11;;;;;;;29.35;17.20;;;;;;;25.41;20.43;101318.00;1737787;82;25812;-71
2022/03/25 09:52:40;;;;;;;84.13;76.92;;;;;;;25.39;20.75;101314.23;1708285;84;25682;-71
2022/03/25 09:55:07;;;;;;;78.78;72.75;;;;;;;25.69;20.53;101315.39;1738086;82;25690;-71
2022/03/25 09:57:33;;;;;;;27.13;17.40;;;;;;;25.81;20.26;101319.80;1708527;84;25722;-72
2022/03/25 10:00:00;;;;;;;25.45;15.98;;;;;;;25.88;20.30;101328.70;1737858;82;27325;-71
2022/03/25 10:02:26;;;;;;;79.32;73.02;;;;;;;25.93;19.90;101317.25;1710120;84;25311;-72
2022/03/25 10:04:53;;;;;;;82.55;76.65;;;;;;;26.02;19.28;101313.56;1746550;80;25744;-72
2022/03/25 10:07:30;;;;;;;80.72;74.53;;;;;;;26.01;19.43;101313.95;1756670;81;25791;-73
2022/03/25 10:10:13;;;;;;;67.40;61.60;;;;;;;26.01;19.21;101308.41;1770814;81;25706;-73
2022/03/25 10:12:44;;;;;;;27.70;15.05;;;;;;;26.14;19.29;101315.80;1756616;81;27373;-73
2022/03/25 10:15:21;;;;;;;25.55;13.30;;;;;;;26.40;19.30;101314.66;1776630;80;25756;-72
2022/03/25 10:18:03;;;;;;;24.18;16.12;;;;;;;26.47;18.65;101314.06;1776912;80;25687;-72
2022/03/25 10:20:33;;;;;;;22.02;13.32;;;;;;;26.69;17.83;101320.28;1756751;81;25713;-72
2022/03/25 10:23:11;;;;;;;25.37;13.18;;;;;;;26.35;18.06;101308.89;1770720;81;25748;-72
2022/03/25 10:25:59;;;;;;;29.87;16.80;;;;;;;26.23;18.42;101311.44;1756848;81;27964;-72
2022/03/25 10:28:40;;;;;;;26.25;13.28;;;;;;;26.37;17.68;101306.52;1776778;80;26349;-71
2022/03/25 10:31:15;;;;;;;19.80;11.53;;;;;;;26.10;17.60;101307.44;1777429;79;25738;-72
2022/03/25 10:34:00;;;;;;;23.32;12.88;;;;;;;25.90;17.64;101311.13;1771479;80;25631;-72
2022/03/25 10:36:27;;;;;;;75.90;70.50;;;;;;;25.89;17.59;101306.16;1815396;79;25609;-71
2022/03/25 10:39:06;;;;;;;77.37;71.47;;;;;;;25.85;17.53;101301.80;1801519;78;27319;-71
2022/03/25 10:41:45;;;;;;;76.90;70.85;;;;;;;25.88;17.80;101306.54;1789502;78;25775;-72
2022/03/25 10:44:13;;;;;;;76.82;70.78;;;;;;;26.14;17.73;101295.78;1782530;80;25714;-72
2022/03/25 10:46:46;;;;;;;62.40;56.68;;;;;;;26.25;17.96;101304.13;1782184;80;25297;-72
2022/03/25 10:49:19;;;;;;;77.70;71.92;;;;;;;26.49;17.97;101305.34;1782343;80;25644;-72
2022/03/25 10:51:56;;;;;;;77.17;71.35;;;;;;;26.59;17.86;101292.69;1782337;80;27332;-71
2022/03/25 10:54:27;;;;;;;76.42;70.52;;;;;;;26.80;17.41;101292.73;1782287;80;25773;-72
2022/03/25 10:57:02;;;;;;;77.45;70.87;;;;;;;26.75;17.68;101288.97;1782357;80;25746;-72
2022/03/25 10:59:34;;;;;;;74.10;68.42;;;;;;;26.76;17.38;101296.09;1782335;80;26214;-72
2022/03/25 11:02:05;;;;;;;74.37;68.95;;;;;;;26.76;17.56;101282.21;1783654;80;25302;-72
2022/03/25 11:04:50;;;;;;;76.87;71.15;;;;;;;26.91;17.63;101277.45;1778701;80;27485;-72
2022/03/25 11:07:18;;;;;;;74.30;68.70;;;;;;;26.97;17.51;101275.88;1782555;80;25614;-71
2022/03/25 11:09:46;;;;;;;74.67;68.85;;;;;;;27.11;17.36;101271.50;1782511;80;25705;-72
2022/03/25 11:12:14;;;;;;;75.83;69.30;;;;;;;27.28;17.12;101279.59;1782369;80;26338;-74
2022/03/25 11:14:40;;;;;;;76.63;71.27;;;;;;;27.45;17.35;101271.84;1782587;80;26382;-74
2022/03/25 11:17:08;;;;;;;75.78;70.10;;;;;;;27.52;17.08;101271.02;1782431;80;27351;-73
2022/03/25 11:19:37;;;;;;;77.67;71.72;;;;;;;27.38;17.50;101267.09;1782700;80;25282;-73
2022/03/25 11:22:05;;;;;;;;;;;;;;;27.28;17.55;101279.59;1785070;80;25627;-73
2022/03/25 11:24:48;;;;;;;78.28;71.95;;;;;;;27.03;18.05;101277.04;1782480;80;25698;-75